createdAt,value
2022-10-28T00:00:11.984Z,7.69
2022-10-28T00:02:41.120Z,7.60
2022-10-28T00:05:11.023Z,7.55
2022-10-28T00:07:40.083Z,7.58
2022-10-28T00:10:10.525Z,7.57
2022-10-28T00:12:40.961Z,7.60
2022-10-28T00:15:10.975Z,7.53
2022-10-28T00:17:40.001Z,7.55
2022-10-28T00:20:10.629Z,7.66
2022-10-28T00:22:39.787Z,7.60
2022-10-28T00:25:09.893Z,7.51
2022-10-28T00:27:40.300Z,7.54
2022-10-28T00:30:10.527Z,7.64
2022-10-28T00:32:39.548Z,7.70
2022-10-28T00:35:09.364Z,7.59
2022-10-28T00:37:38.419Z,7.43
2022-10-28T00:40:08.544Z,7.40
2022-10-28T00:42:37.611Z,7.36
2022-10-28T00:45:10.884Z,7.35
2022-10-28T00:47:52.277Z,7.23
2022-10-28T00:50:40.925Z,7.36
2022-10-28T00:53:15.421Z,7.31
2022-10-28T00:55:46.088Z,7.26
2022-10-28T00:58:16.040Z,7.20
2022-10-28T01:00:46.532Z,7.29
2022-10-28T01:03:16.285Z,7.10
2022-10-28T01:05:52.173Z,7.10
2022-10-28T01:08:21.484Z,7.12
2022-10-28T01:11:41.620Z,7.09
2022-10-28T01:14:24.193Z,7.11
2022-10-28T01:17:14.341Z,7.00
2022-10-28T01:20:26.086Z,6.83
2022-10-28T01:23:06.301Z,6.86
2022-10-28T01:26:08.899Z,6.94
2022-10-28T01:29:23.690Z,7.18
2022-10-28T01:31:58.577Z,7.20
2022-10-28T01:34:33.653Z,7.15
2022-10-28T01:37:10.075Z,7.05
2022-10-28T01:39:48.044Z,7.06
2022-10-28T01:42:26.612Z,6.97
2022-10-28T01:45:08.852Z,6.86
2022-10-28T01:47:47.462Z,6.86
2022-10-28T01:50:23.326Z,6.94
2022-10-28T01:52:56.912Z,6.80
2022-10-28T01:55:31.793Z,6.71
2022-10-28T01:58:02.408Z,6.74
2022-10-28T02:00:33.398Z,6.75
2022-10-28T02:03:05.057Z,6.64
2022-10-28T02:05:45.968Z,6.53
2022-10-28T02:08:44.166Z,6.39
2022-10-28T02:11:45.682Z,6.27
2022-10-28T02:14:34.035Z,6.40
2022-10-28T02:17:18.732Z,6.33
2022-10-28T02:19:55.189Z,6.31
2022-10-28T02:22:31.452Z,6.26
2022-10-28T02:25:09.947Z,6.27
2022-10-28T02:27:47.676Z,6.22
2022-10-28T02:30:24.246Z,6.23
2022-10-28T02:32:59.097Z,6.18
2022-10-28T02:35:34.544Z,6.08
2022-10-28T02:38:10.931Z,6.01
2022-10-28T02:40:43.016Z,6.03
2022-10-28T02:43:16.029Z,6.13
2022-10-28T02:45:51.175Z,6.15
2022-10-28T02:48:26.930Z,6.04
2022-10-28T02:51:06.863Z,6.04
2022-10-28T02:53:45.801Z,5.98
2022-10-28T02:56:17.578Z,5.96
2022-10-28T02:58:47.064Z,5.93
2022-10-28T03:01:16.250Z,5.83
2022-10-28T03:03:45.521Z,5.79
2022-10-28T03:06:16.301Z,5.90
2022-10-28T03:08:45.513Z,5.97
2022-10-28T03:11:14.568Z,5.89
2022-10-28T03:13:43.547Z,5.98
2022-10-28T03:16:12.609Z,5.94
2022-10-28T03:18:41.658Z,5.92
2022-10-28T03:21:10.736Z,5.92
2022-10-28T03:23:41.139Z,6.03
2022-10-28T03:26:10.190Z,6.01
2022-10-28T03:28:39.216Z,5.95
2022-10-28T03:31:08.335Z,5.83
2022-10-28T03:33:37.377Z,5.75
2022-10-28T03:36:07.050Z,5.66
2022-10-28T03:38:36.132Z,5.64
2022-10-28T03:41:06.976Z,5.58
2022-10-28T03:43:36.001Z,5.57
2022-10-28T03:46:05.098Z,5.59
2022-10-28T03:48:34.248Z,5.60
2022-10-28T03:51:03.324Z,5.62
2022-10-28T03:53:32.543Z,5.65
2022-10-28T03:56:02.835Z,5.59
2022-10-28T03:58:36.108Z,5.64
2022-10-28T04:01:08.026Z,5.77
2022-10-28T04:03:37.140Z,5.62
2022-10-28T04:06:06.845Z,5.61
2022-10-28T04:08:35.980Z,5.69
2022-10-28T04:11:05.085Z,5.63
2022-10-28T04:13:36.092Z,5.45
2022-10-28T04:16:06.149Z,5.34
2022-10-28T04:18:35.821Z,5.21
2022-10-28T04:21:05.875Z,5.31
2022-10-28T04:23:34.976Z,5.21
2022-10-28T04:26:04.104Z,5.28
2022-10-28T04:28:33.164Z,5.27
2022-10-28T04:31:03.796Z,5.25
2022-10-28T04:33:32.863Z,5.29
2022-10-28T04:39:04.858Z,5.45
2022-10-28T04:41:33.939Z,5.36
2022-10-28T04:44:03.084Z,5.29
2022-10-28T04:46:33.649Z,5.26
2022-10-28T04:49:04.124Z,5.22
2022-10-28T04:51:33.282Z,5.21
2022-10-28T04:54:02.562Z,5.28
2022-10-28T04:56:33.357Z,5.21
2022-10-28T04:59:02.708Z,5.29
2022-10-28T05:01:33.413Z,5.33
2022-10-28T05:04:02.746Z,5.39
2022-10-28T05:06:31.985Z,5.31
2022-10-28T05:09:01.110Z,5.33
2022-10-28T05:11:30.320Z,5.31
2022-10-28T05:13:59.714Z,5.30
2022-10-28T05:16:30.119Z,5.29
2022-10-28T05:19:00.968Z,5.25
2022-10-28T05:21:30.177Z,5.24
2022-10-28T05:23:59.240Z,5.23
2022-10-28T05:26:28.388Z,5.13
2022-10-28T05:28:57.527Z,5.13
2022-10-28T05:31:26.615Z,5.11
2022-10-28T05:33:55.860Z,5.13
2022-10-28T05:36:26.320Z,5.14
2022-10-28T05:38:55.388Z,5.11
2022-10-28T05:41:24.415Z,5.02
2022-10-28T05:43:53.455Z,5.07
2022-10-28T05:46:23.089Z,5.09
2022-10-28T05:48:52.244Z,5.11
2022-10-28T05:51:21.320Z,5.17
2022-10-28T05:53:51.979Z,5.19
2022-10-28T05:56:21.117Z,5.28
2022-10-28T06:01:19.616Z,5.31
2022-10-28T06:03:48.760Z,5.38
2022-10-28T06:06:18.017Z,5.51
2022-10-28T06:08:47.169Z,5.55
2022-10-28T06:11:16.068Z,5.71
2022-10-28T06:13:45.108Z,5.70
2022-10-28T06:16:14.356Z,5.67
2022-10-28T06:18:43.424Z,5.63
2022-10-28T06:21:13.099Z,5.74
2022-10-28T06:23:42.139Z,5.84
2022-10-28T06:26:11.272Z,6.01
2022-10-28T06:28:41.813Z,6.32
2022-10-28T06:31:10.923Z,6.48
2022-10-28T06:33:40.056Z,6.46
2022-10-28T06:36:09.824Z,6.60
2022-10-28T06:38:39.041Z,6.71
2022-10-28T06:41:08.213Z,6.78
2022-10-28T06:43:37.341Z,6.88
2022-10-28T06:46:07.872Z,7.01
2022-10-28T06:48:38.467Z,7.10
2022-10-28T06:51:08.709Z,7.15
2022-10-28T06:53:37.840Z,7.20
2022-10-28T06:56:08.096Z,7.45
2022-10-28T06:58:37.194Z,7.70
2022-10-28T07:01:08.347Z,7.81
2022-10-28T07:03:37.525Z,8.07
2022-10-28T07:06:08.229Z,8.25
2022-10-28T07:08:37.572Z,8.44
2022-10-28T07:11:07.586Z,8.78
2022-10-28T07:13:36.802Z,8.74
2022-10-28T07:16:08.930Z,8.82
2022-10-28T07:18:37.946Z,9.00
2022-10-28T07:21:07.287Z,9.17
2022-10-28T07:23:36.317Z,9.31
2022-10-28T07:26:05.650Z,9.46
2022-10-28T07:28:34.707Z,9.74
2022-10-28T07:31:04.471Z,9.89
2022-10-28T07:33:35.077Z,10.12
2022-10-28T07:36:05.426Z,10.37
2022-10-28T07:38:35.486Z,10.63
2022-10-28T07:41:08.051Z,10.79
2022-10-28T07:43:38.513Z,10.88
2022-10-28T07:46:09.007Z,11.08
2022-10-28T07:48:39.803Z,11.28
2022-10-28T07:51:11.976Z,11.36
2022-10-28T07:53:41.811Z,11.47
2022-10-28T07:56:14.374Z,11.61
2022-10-28T07:58:44.811Z,11.85
2022-10-28T08:01:16.964Z,12.16
2022-10-28T08:03:48.593Z,12.36
2022-10-28T08:06:20.158Z,12.50
2022-10-28T08:08:53.946Z,12.66
2022-10-28T08:11:24.004Z,12.79
2022-10-28T08:13:55.235Z,12.88
2022-10-28T08:16:24.710Z,13.14
2022-10-28T08:18:55.074Z,13.18
2022-10-28T08:21:27.198Z,13.34
2022-10-28T08:23:56.590Z,13.48
2022-10-28T08:26:25.837Z,13.58
2022-10-28T08:28:54.850Z,13.68
2022-10-28T08:31:23.904Z,13.93
2022-10-28T08:33:54.387Z,13.98
2022-10-28T08:36:23.500Z,14.17
2022-10-28T08:38:52.654Z,14.46
2022-10-28T08:41:32.502Z,14.65
2022-10-28T08:44:32.462Z,14.87
2022-10-28T08:47:17.334Z,15.12
2022-10-28T08:49:52.798Z,15.22
2022-10-28T08:52:32.392Z,15.34
2022-10-28T08:55:06.186Z,15.46
2022-10-28T08:57:41.907Z,15.69
2022-10-28T09:00:22.528Z,15.95
2022-10-28T09:03:17.986Z,16.05
2022-10-28T09:05:52.257Z,16.25
2022-10-28T09:08:24.835Z,16.49
2022-10-28T09:11:07.950Z,16.61
2022-10-28T09:13:57.012Z,16.88
2022-10-28T09:16:39.559Z,16.94
2022-10-28T09:19:26.059Z,17.06
2022-10-28T09:22:15.285Z,17.17
2022-10-28T09:24:54.068Z,17.24
2022-10-28T09:27:57.370Z,17.34
2022-10-28T09:30:49.103Z,17.32
2022-10-28T09:33:51.221Z,17.43
2022-10-28T09:36:29.744Z,17.51
2022-10-28T09:39:02.960Z,17.59
2022-10-28T09:41:38.311Z,17.61
2022-10-28T09:44:16.897Z,17.62
2022-10-28T09:46:49.818Z,17.69
2022-10-28T09:49:26.116Z,17.76
2022-10-28T09:52:02.841Z,17.85
2022-10-28T09:54:37.946Z,17.76
2022-10-28T09:57:07.383Z,17.68
2022-10-28T09:59:36.982Z,17.80
2022-10-28T10:02:06.358Z,17.93
2022-10-28T10:04:36.070Z,17.99
2022-10-28T10:07:10.545Z,17.96
2022-10-28T10:09:41.761Z,17.95
2022-10-28T10:12:13.636Z,18.06
2022-10-28T10:14:47.743Z,18.09
2022-10-28T10:17:21.005Z,18.19
2022-10-28T10:20:05.564Z,18.30
2022-10-28T10:22:36.864Z,18.34
2022-10-28T10:25:26.722Z,18.46
2022-10-28T10:28:00.285Z,18.63
2022-10-28T10:30:34.886Z,18.60
2022-10-28T10:33:04.938Z,18.68
2022-10-28T10:35:36.437Z,18.84
2022-10-28T10:38:07.983Z,18.96
2022-10-28T10:40:49.282Z,18.98
2022-10-28T10:43:31.698Z,19.03
2022-10-28T10:46:04.922Z,19.20
2022-10-28T10:48:36.618Z,19.40
2022-10-28T10:51:13.257Z,19.47
2022-10-28T10:53:42.551Z,19.61
2022-10-28T10:56:15.797Z,19.71
2022-10-28T10:58:52.654Z,19.79
2022-10-28T11:01:25.700Z,19.90
2022-10-28T11:03:59.398Z,19.94
2022-10-28T11:06:31.667Z,19.99
2022-10-28T11:09:03.845Z,20.05
2022-10-28T11:11:37.416Z,20.13
2022-10-28T11:14:19.307Z,20.20
2022-10-28T11:16:50.406Z,20.35
2022-10-28T11:19:24.878Z,20.45
2022-10-28T11:22:25.321Z,20.55
2022-10-28T11:25:36.102Z,20.60
2022-10-28T11:28:31.164Z,20.73
2022-10-28T11:31:16.702Z,20.88
2022-10-28T11:33:56.776Z,21.17
2022-10-28T11:36:33.906Z,21.41
2022-10-28T11:39:21.190Z,21.40
2022-10-28T11:42:09.548Z,21.30
2022-10-28T11:44:52.484Z,21.36
2022-10-28T11:47:41.699Z,21.46
2022-10-28T11:50:25.171Z,21.57
2022-10-28T11:53:22.342Z,21.73
2022-10-28T11:55:59.831Z,21.77
2022-10-28T11:58:42.271Z,21.82
2022-10-28T12:01:27.879Z,21.86
2022-10-28T12:04:24.308Z,21.92
2022-10-28T12:07:09.963Z,22.01
2022-10-28T12:09:54.512Z,22.12
2022-10-28T12:12:32.748Z,22.30
2022-10-28T12:15:19.479Z,22.56
2022-10-28T12:17:59.124Z,22.75
2022-10-28T12:23:26.209Z,23.57
2022-10-28T12:25:59.300Z,23.62
2022-10-28T12:28:34.527Z,23.53
2022-10-28T12:31:04.966Z,23.53
2022-10-28T12:33:43.974Z,23.84
2022-10-28T12:36:33.113Z,24.07
2022-10-28T12:39:08.006Z,24.42
2022-10-28T12:41:58.161Z,24.84
2022-10-28T12:44:29.548Z,24.66
2022-10-28T12:47:13.181Z,24.47
2022-10-28T12:49:58.633Z,24.67
2022-10-28T12:52:38.082Z,25.00
2022-10-28T12:55:22.378Z,25.37
2022-10-28T12:58:00.101Z,25.51
2022-10-28T13:00:33.686Z,25.56
2022-10-28T13:03:07.662Z,25.67
2022-10-28T13:05:44.329Z,25.75
2022-10-28T13:08:44.478Z,26.17
2022-10-28T13:12:03.891Z,27.83
2022-10-28T13:17:56.322Z,31.08
2022-10-28T13:20:40.361Z,32.35
2022-10-28T13:23:24.375Z,32.35
2022-10-28T13:26:10.614Z,31.16
2022-10-28T13:28:47.522Z,31.27
2022-10-28T13:31:17.426Z,30.93
2022-10-28T13:33:55.534Z,30.50
2022-10-28T13:36:29.569Z,29.79
2022-10-28T13:39:03.678Z,29.62
2022-10-28T13:41:38.106Z,29.51
2022-10-28T13:44:27.649Z,29.87
2022-10-28T13:47:26.904Z,30.24
2022-10-28T13:50:37.327Z,30.37
2022-10-28T13:53:55.401Z,30.61
2022-10-28T13:56:47.034Z,31.03
2022-10-28T13:59:32.011Z,33.74
2022-10-28T14:02:40.007Z,35.63
2022-10-28T14:05:11.681Z,36.98
2022-10-28T14:07:53.011Z,37.52
2022-10-28T14:10:26.660Z,37.79
2022-10-28T14:13:01.074Z,38.08
2022-10-28T14:15:32.613Z,38.09
2022-10-28T14:18:22.450Z,37.81
2022-10-28T14:21:00.903Z,37.42
2022-10-28T14:24:17.061Z,36.97
2022-10-28T14:27:32.556Z,36.75
2022-10-28T14:30:23.903Z,36.66
2022-10-28T14:33:31.631Z,36.71
2022-10-28T14:36:30.362Z,36.69
2022-10-28T14:39:25.248Z,36.25
2022-10-28T14:42:18.810Z,35.37
2022-10-28T14:45:15.898Z,32.78
2022-10-28T14:48:13.384Z,30.20
2022-10-28T14:50:46.994Z,28.37
2022-10-28T14:53:25.113Z,27.04
2022-10-28T14:56:02.193Z,26.05
2022-10-28T14:58:38.003Z,25.30
2022-10-28T15:01:22.919Z,24.69
2022-10-28T15:03:58.126Z,24.08
2022-10-28T15:06:36.332Z,23.46
2022-10-28T15:09:19.482Z,22.88
2022-10-28T15:11:55.962Z,22.31
2022-10-28T15:14:30.364Z,21.91
2022-10-28T15:17:04.031Z,21.55
2022-10-28T15:19:37.232Z,21.28
2022-10-28T15:22:14.011Z,20.98
2022-10-28T15:24:46.317Z,20.60
2022-10-28T15:27:16.913Z,20.32
2022-10-28T15:29:45.985Z,20.03
2022-10-28T15:32:29.505Z,19.83
2022-10-28T15:35:00.676Z,19.52
2022-10-28T15:37:31.970Z,19.15
2022-10-28T15:40:22.734Z,18.81
2022-10-28T15:42:58.318Z,18.53
2022-10-28T15:45:31.033Z,18.34
2022-10-28T15:48:03.715Z,18.11
2022-10-28T15:50:36.569Z,17.87
2022-10-28T15:53:37.825Z,17.65
2022-10-28T15:56:22.320Z,17.57
2022-10-28T15:59:09.058Z,17.32
2022-10-28T16:01:40.176Z,17.09
2022-10-28T16:04:43.831Z,17.01
2022-10-28T16:07:14.301Z,16.84
2022-10-28T16:09:48.078Z,16.69
2022-10-28T16:12:20.681Z,16.47
2022-10-28T16:14:54.821Z,16.33
2022-10-28T16:17:27.644Z,16.10
2022-10-28T16:20:00.506Z,16.00
2022-10-28T16:22:32.516Z,15.78
2022-10-28T16:25:01.518Z,15.72
2022-10-28T16:27:33.832Z,15.69
2022-10-28T16:30:02.836Z,15.53
2022-10-28T16:32:38.726Z,15.32
2022-10-28T16:35:16.656Z,15.20
2022-10-28T16:37:50.711Z,15.11
2022-10-28T16:40:50.880Z,14.82
2022-10-28T16:43:17.540Z,14.68
2022-10-28T16:45:47.015Z,14.55
2022-10-28T16:48:17.697Z,14.56
2022-10-28T16:50:52.481Z,14.50
2022-10-28T16:53:23.433Z,14.43
2022-10-28T16:55:54.211Z,14.30
2022-10-28T16:58:26.129Z,14.19
2022-10-28T17:00:56.821Z,14.06
2022-10-28T17:03:25.956Z,14.01
2022-10-28T17:05:54.990Z,13.84
2022-10-28T17:08:48.875Z,13.80
2022-10-28T17:11:16.400Z,13.67
2022-10-28T17:13:45.538Z,13.62
2022-10-28T17:16:14.571Z,13.43
2022-10-28T17:18:44.285Z,13.42
2022-10-28T17:21:13.299Z,13.31
2022-10-28T17:23:43.730Z,13.36
2022-10-28T17:26:12.850Z,13.32
2022-10-28T17:28:41.969Z,13.27
2022-10-28T17:31:11.570Z,13.06
2022-10-28T17:33:40.655Z,12.93
2022-10-28T17:36:11.122Z,12.94
2022-10-28T17:38:41.234Z,12.88
2022-10-28T17:41:12.480Z,12.81
2022-10-28T17:43:41.589Z,12.72
2022-10-28T17:46:11.361Z,12.71
2022-10-28T17:48:40.865Z,12.76
2022-10-28T17:51:10.071Z,12.58
2022-10-28T17:53:39.158Z,12.53
2022-10-28T17:56:09.715Z,12.47
2022-10-28T17:58:40.406Z,12.37
2022-10-28T18:01:11.808Z,12.41
2022-10-28T18:03:41.026Z,12.44
2022-10-28T18:06:13.205Z,12.35
2022-10-28T18:08:44.375Z,12.21
2022-10-28T18:11:17.122Z,12.11
2022-10-28T18:13:51.553Z,12.08
2022-10-28T18:16:24.331Z,12.07
2022-10-28T18:18:54.181Z,11.95
2022-10-28T18:21:24.734Z,12.02
2022-10-28T18:23:54.486Z,11.88
2022-10-28T18:26:23.576Z,11.86
2022-10-28T18:28:54.011Z,11.85
2022-10-28T18:31:23.486Z,11.78
2022-10-28T18:33:52.889Z,11.74
2022-10-28T18:36:24.499Z,11.73
2022-10-28T18:38:54.026Z,11.68
2022-10-28T18:41:25.858Z,11.69
2022-10-28T18:43:57.432Z,11.61
2022-10-28T18:46:29.398Z,11.52
2022-10-28T18:51:33.350Z,11.32
2022-10-28T18:54:02.919Z,11.21
2022-10-28T18:56:34.230Z,11.22
2022-10-28T18:59:06.311Z,11.23
2022-10-28T19:01:36.367Z,11.14
2022-10-28T19:04:06.352Z,11.01
2022-10-28T19:06:35.537Z,10.90
2022-10-28T19:09:05.895Z,10.86
2022-10-28T19:11:36.090Z,10.82
2022-10-28T19:14:10.104Z,10.77
2022-10-28T19:16:39.513Z,10.83
2022-10-28T19:19:08.778Z,10.79
2022-10-28T19:21:38.022Z,10.82
2022-10-28T19:24:09.184Z,10.81
2022-10-28T19:26:39.451Z,10.79
2022-10-28T19:29:14.232Z,10.73
2022-10-28T19:31:43.582Z,10.60
2022-10-28T19:34:14.348Z,10.60
2022-10-28T19:36:43.511Z,10.62
2022-10-28T19:39:13.277Z,10.56
2022-10-28T19:41:43.522Z,10.58
2022-10-28T19:44:15.415Z,10.53
2022-10-28T19:46:44.475Z,10.57
2022-10-28T19:49:13.750Z,10.50
2022-10-28T19:51:43.264Z,10.35
2022-10-28T19:54:15.177Z,10.30
2022-10-28T19:56:48.011Z,10.31
2022-10-28T19:59:18.663Z,10.16
2022-10-28T20:01:49.176Z,10.06
2022-10-28T20:04:18.572Z,10.12
2022-10-28T20:06:48.468Z,10.28
2022-10-28T20:09:17.735Z,10.29
2022-10-28T20:11:46.953Z,10.31
2022-10-28T20:14:18.909Z,10.29
2022-10-28T20:16:49.272Z,10.15
2022-10-28T20:19:18.288Z,10.06
2022-10-28T20:21:48.689Z,9.95
2022-10-28T20:24:20.000Z,9.90
2022-10-28T20:26:49.187Z,9.83
2022-10-28T20:29:19.878Z,9.87
2022-10-28T20:31:49.148Z,9.78
2022-10-28T20:34:18.207Z,9.73
2022-10-28T20:36:48.510Z,9.70
2022-10-28T20:39:20.758Z,9.60
2022-10-28T20:41:52.233Z,9.62
2022-10-28T20:44:22.759Z,9.57
2022-10-28T20:46:51.800Z,9.39
2022-10-28T20:49:20.990Z,9.33
2022-10-28T20:51:50.802Z,9.46
2022-10-28T20:54:20.001Z,9.56
2022-10-28T20:56:49.069Z,9.65
2022-10-28T20:59:18.125Z,9.83
2022-10-28T21:01:51.859Z,9.85
2022-10-28T21:04:20.994Z,9.73
2022-10-28T21:06:50.090Z,9.69
2022-10-28T21:09:19.214Z,9.53
2022-10-28T21:11:48.345Z,9.49
2022-10-28T21:14:17.691Z,9.35
2022-10-28T21:16:50.643Z,9.26
2022-10-28T21:19:19.765Z,9.27
2022-10-28T21:21:48.942Z,9.32
2022-10-28T21:24:18.065Z,9.27
2022-10-28T21:26:48.438Z,9.22
2022-10-28T21:29:20.975Z,9.15
2022-10-28T21:31:51.394Z,9.23
2022-10-28T21:34:20.520Z,9.26
2022-10-28T21:36:49.502Z,9.29
2022-10-28T21:39:18.573Z,9.26
2022-10-28T21:41:50.287Z,9.25
2022-10-28T21:44:19.585Z,9.17
2022-10-28T21:46:50.955Z,8.99
2022-10-28T21:49:19.997Z,8.90
2022-10-28T21:51:49.133Z,8.81
2022-10-28T21:54:18.831Z,8.78
2022-10-28T21:56:50.242Z,8.83
2022-10-28T21:59:19.386Z,8.82
2022-10-28T22:01:48.598Z,8.84
2022-10-28T22:04:19.238Z,8.88
2022-10-28T22:09:22.495Z,8.68
2022-10-28T22:11:51.511Z,8.66
2022-10-28T22:14:21.422Z,8.80
2022-10-28T22:16:50.571Z,8.79
2022-10-28T22:19:20.986Z,8.77
2022-10-28T22:21:50.128Z,8.77
2022-10-28T22:24:19.176Z,8.81
2022-10-28T22:26:48.345Z,8.77
2022-10-28T22:29:17.407Z,8.69
2022-10-28T22:31:47.134Z,8.76
2022-10-28T22:34:16.166Z,8.96
2022-10-28T22:36:47.805Z,9.13
2022-10-28T22:39:16.842Z,9.22
2022-10-28T22:41:45.944Z,9.32
2022-10-28T22:44:14.959Z,9.37
2022-10-28T22:46:43.984Z,9.50
2022-10-28T22:49:13.071Z,9.58
2022-10-28T22:51:42.123Z,9.64
2022-10-28T22:54:12.605Z,9.73
2022-10-28T22:56:45.652Z,9.82
2022-10-28T22:59:14.745Z,9.95
2022-10-28T23:01:43.955Z,10.02
2022-10-28T23:04:13.559Z,10.07
2022-10-28T23:06:42.574Z,10.06
2022-10-28T23:09:15.388Z,10.07
2022-10-28T23:11:44.549Z,10.13
2022-10-28T23:14:13.607Z,10.20
2022-10-28T23:16:42.667Z,10.28
2022-10-28T23:19:11.660Z,10.33
2022-10-28T23:21:40.706Z,10.32
2022-10-28T23:27:14.058Z,10.44
2022-10-28T23:29:43.230Z,10.41
2022-10-28T23:32:12.243Z,10.34
2022-10-28T23:34:41.379Z,10.34
2022-10-28T23:37:10.500Z,10.37
2022-10-28T23:39:39.522Z,10.44
2022-10-28T23:42:08.526Z,10.53
2022-10-28T23:44:39.150Z,10.55
2022-10-28T23:47:08.335Z,10.60
2022-10-28T23:49:37.374Z,10.61
2022-10-28T23:52:06.548Z,10.68
2022-10-28T23:54:35.595Z,10.69
2022-10-28T23:57:05.454Z,10.71
2022-10-28T23:59:34.653Z,10.73
